sensor_id;sensor_type;location;lat;lon;timestamp;P1;durP1;ratioP1;P2;durP2;ratioP2
67274;SDS011;55463;52.324;5.122;2023-03-25T00:00:49;17.58;;;3.53;;
67274;SDS011;55463;52.324;5.122;2023-03-25T00:03:17;15.77;;;3.30;;
67274;SDS011;55463;52.324;5.122;2023-03-25T00:05:43;17.73;;;2.85;;
67274;SDS011;55463;52.324;5.122;2023-03-25T00:08:09;20.50;;;3.55;;
67274;SDS011;55463;52.324;5.122;2023-03-25T00:10:34;24.85;;;3.75;;
67274;SDS011;55463;52.324;5.122;2023-03-25T00:13:00;20.92;;;4.03;;
67274;SDS011;55463;52.324;5.122;2023-03-25T00:15:29;18.35;;;3.35;;
67274;SDS011;55463;52.324;5.122;2023-03-25T00:17:58;21.83;;;3.35;;
67274;SDS011;55463;52.324;5.122;2023-03-25T00:20:24;25.05;;;3.13;;
67274;SDS011;55463;52.324;5.122;2023-03-25T00:22:51;30.27;;;4.38;;
67274;SDS011;55463;52.324;5.122;2023-03-25T00:25:17;21.08;;;3.53;;
67274;SDS011;55463;52.324;5.122;2023-03-25T00:27:44;24.25;;;3.53;;
67274;SDS011;55463;52.324;5.122;2023-03-25T00:30:16;18.77;;;3.20;;
67274;SDS011;55463;52.324;5.122;2023-03-25T00:32:42;29.98;;;4.15;;
67274;SDS011;55463;52.324;5.122;2023-03-25T00:35:10;19.42;;;3.55;;
67274;SDS011;55463;52.324;5.122;2023-03-25T00:37:37;28.90;;;3.53;;
67274;SDS011;55463;52.324;5.122;2023-03-25T00:40:03;20.10;;;2.92;;
67274;SDS011;55463;52.324;5.122;2023-03-25T00:42:29;15.18;;;2.85;;
67274;SDS011;55463;52.324;5.122;2023-03-25T00:44:55;18.58;;;4.05;;
67274;SDS011;55463;52.324;5.122;2023-03-25T00:47:20;20.42;;;3.45;;
67274;SDS011;55463;52.324;5.122;2023-03-25T00:49:46;16.27;;;3.33;;
67274;SDS011;55463;52.324;5.122;2023-03-25T00:52:12;21.10;;;3.55;;
67274;SDS011;55463;52.324;5.122;2023-03-25T00:54:39;23.77;;;3.25;;
67274;SDS011;55463;52.324;5.122;2023-03-25T00:57:05;16.00;;;3.10;;
67274;SDS011;55463;52.324;5.122;2023-03-25T00:59:30;24.55;;;3.45;;
67274;SDS011;55463;52.324;5.122;2023-03-25T01:01:56;16.85;;;4.55;;
67274;SDS011;55463;52.324;5.122;2023-03-25T01:04:21;19.70;;;4.05;;
67274;SDS011;55463;52.324;5.122;2023-03-25T01:06:47;17.85;;;3.22;;
67274;SDS011;55463;52.324;5.122;2023-03-25T01:09:16;21.85;;;3.80;;
67274;SDS011;55463;52.324;5.122;2023-03-25T01:11:44;20.88;;;3.08;;
67274;SDS011;55463;52.324;5.122;2023-03-25T01:14:20;21.92;;;3.13;;
67274;SDS011;55463;52.324;5.122;2023-03-25T01:16:51;18.30;;;3.47;;
67274;SDS011;55463;52.324;5.122;2023-03-25T01:19:17;28.90;;;4.22;;
67274;SDS011;55463;52.324;5.122;2023-03-25T01:21:42;18.90;;;4.05;;
67274;SDS011;55463;52.324;5.122;2023-03-25T01:24:09;19.30;;;3.10;;
67274;SDS011;55463;52.324;5.122;2023-03-25T01:26:37;26.77;;;3.38;;
67274;SDS011;55463;52.324;5.122;2023-03-25T01:29:05;18.13;;;3.28;;
67274;SDS011;55463;52.324;5.122;2023-03-25T01:31:30;17.95;;;3.47;;
67274;SDS011;55463;52.324;5.122;2023-03-25T01:33:56;25.40;;;4.30;;
67274;SDS011;55463;52.324;5.122;2023-03-25T01:36:23;21.20;;;3.03;;
67274;SDS011;55463;52.324;5.122;2023-03-25T01:38:49;31.52;;;3.78;;
67274;SDS011;55463;52.324;5.122;2023-03-25T01:41:15;20.65;;;3.50;;
67274;SDS011;55463;52.324;5.122;2023-03-25T01:43:41;18.45;;;3.53;;
67274;SDS011;55463;52.324;5.122;2023-03-25T01:46:12;21.15;;;3.80;;
67274;SDS011;55463;52.324;5.122;2023-03-25T01:48:38;21.17;;;3.13;;
67274;SDS011;55463;52.324;5.122;2023-03-25T01:51:17;27.27;;;4.72;;
67274;SDS011;55463;52.324;5.122;2023-03-25T01:53:46;22.52;;;3.78;;
67274;SDS011;55463;52.324;5.122;2023-03-25T01:56:13;16.48;;;3.10;;
67274;SDS011;55463;52.324;5.122;2023-03-25T01:58:42;17.77;;;3.20;;
67274;SDS011;55463;52.324;5.122;2023-03-25T02:01:08;23.73;;;3.63;;
67274;SDS011;55463;52.324;5.122;2023-03-25T02:03:38;22.33;;;3.45;;
67274;SDS011;55463;52.324;5.122;2023-03-25T02:06:14;19.92;;;3.78;;
67274;SDS011;55463;52.324;5.122;2023-03-25T02:08:41;13.30;;;2.83;;
67274;SDS011;55463;52.324;5.122;2023-03-25T02:11:07;14.30;;;3.63;;
67274;SDS011;55463;52.324;5.122;2023-03-25T02:13:35;19.73;;;3.55;;
67274;SDS011;55463;52.324;5.122;2023-03-25T02:16:14;22.08;;;3.35;;
67274;SDS011;55463;52.324;5.122;2023-03-25T02:19:04;16.90;;;3.75;;
67274;SDS011;55463;52.324;5.122;2023-03-25T02:22:07;17.23;;;2.83;;
67274;SDS011;55463;52.324;5.122;2023-03-25T02:30:17;15.52;;;3.38;;
67274;SDS011;55463;52.324;5.122;2023-03-25T02:33:00;16.92;;;3.40;;
67274;SDS011;55463;52.324;5.122;2023-03-25T02:38:56;20.80;;;3.25;;
67274;SDS011;55463;52.324;5.122;2023-03-25T02:46:36;23.08;;;4.13;;
67274;SDS011;55463;52.324;5.122;2023-03-25T02:49:07;18.98;;;3.97;;
67274;SDS011;55463;52.324;5.122;2023-03-25T02:51:39;20.30;;;3.67;;
67274;SDS011;55463;52.324;5.122;2023-03-25T02:54:13;24.15;;;4.03;;
67274;SDS011;55463;52.324;5.122;2023-03-25T02:56:41;24.77;;;3.65;;
67274;SDS011;55463;52.324;5.122;2023-03-25T02:59:08;23.90;;;3.40;;
67274;SDS011;55463;52.324;5.122;2023-03-25T03:01:38;22.73;;;3.88;;
67274;SDS011;55463;52.324;5.122;2023-03-25T03:04:04;18.05;;;4.00;;
67274;SDS011;55463;52.324;5.122;2023-03-25T03:06:30;27.42;;;4.20;;
67274;SDS011;55463;52.324;5.122;2023-03-25T03:12:12;22.98;;;3.42;;
67274;SDS011;55463;52.324;5.122;2023-03-25T03:17:48;25.63;;;4.40;;
67274;SDS011;55463;52.324;5.122;2023-03-25T03:20:50;18.17;;;4.55;;
67274;SDS011;55463;52.324;5.122;2023-03-25T03:23:35;20.08;;;3.80;;
67274;SDS011;55463;52.324;5.122;2023-03-25T03:28:56;31.50;;;4.53;;
67274;SDS011;55463;52.324;5.122;2023-03-25T03:31:38;23.42;;;3.75;;
67274;SDS011;55463;52.324;5.122;2023-03-25T03:34:10;29.55;;;4.70;;
67274;SDS011;55463;52.324;5.122;2023-03-25T03:36:44;30.35;;;4.40;;
67274;SDS011;55463;52.324;5.122;2023-03-25T03:39:31;18.58;;;3.95;;
67274;SDS011;55463;52.324;5.122;2023-03-25T03:42:19;27.67;;;4.45;;
67274;SDS011;55463;52.324;5.122;2023-03-25T03:44:50;25.33;;;3.80;;
67274;SDS011;55463;52.324;5.122;2023-03-25T03:47:20;25.42;;;4.65;;
67274;SDS011;55463;52.324;5.122;2023-03-25T03:49:54;24.02;;;4.65;;
67274;SDS011;55463;52.324;5.122;2023-03-25T03:52:33;21.52;;;3.70;;
67274;SDS011;55463;52.324;5.122;2023-03-25T03:55:25;19.38;;;3.83;;
67274;SDS011;55463;52.324;5.122;2023-03-25T03:58:00;24.83;;;4.05;;
67274;SDS011;55463;52.324;5.122;2023-03-25T04:00:41;32.65;;;4.93;;
67274;SDS011;55463;52.324;5.122;2023-03-25T04:03:23;19.05;;;4.18;;
67274;SDS011;55463;52.324;5.122;2023-03-25T04:05:56;18.63;;;3.90;;
67274;SDS011;55463;52.324;5.122;2023-03-25T04:11:23;19.70;;;3.60;;
67274;SDS011;55463;52.324;5.122;2023-03-25T04:13:54;25.70;;;4.18;;
67274;SDS011;55463;52.324;5.122;2023-03-25T04:16:23;19.77;;;3.60;;
67274;SDS011;55463;52.324;5.122;2023-03-25T04:18:49;23.70;;;3.78;;
67274;SDS011;55463;52.324;5.122;2023-03-25T04:21:17;26.38;;;3.92;;
67274;SDS011;55463;52.324;5.122;2023-03-25T04:23:43;29.02;;;4.75;;
67274;SDS011;55463;52.324;5.122;2023-03-25T04:26:10;21.63;;;4.30;;
67274;SDS011;55463;52.324;5.122;2023-03-25T04:28:37;25.15;;;3.85;;
67274;SDS011;55463;52.324;5.122;2023-03-25T04:31:09;29.52;;;4.43;;
67274;SDS011;55463;52.324;5.122;2023-03-25T04:33:39;25.02;;;4.43;;
67274;SDS011;55463;52.324;5.122;2023-03-25T04:36:10;27.58;;;4.70;;
67274;SDS011;55463;52.324;5.122;2023-03-25T04:38:37;22.17;;;4.28;;
67274;SDS011;55463;52.324;5.122;2023-03-25T04:41:03;27.65;;;4.47;;
67274;SDS011;55463;52.324;5.122;2023-03-25T04:43:31;23.55;;;4.75;;
67274;SDS011;55463;52.324;5.122;2023-03-25T04:45:57;25.65;;;4.75;;
67274;SDS011;55463;52.324;5.122;2023-03-25T04:48:25;28.40;;;3.70;;
67274;SDS011;55463;52.324;5.122;2023-03-25T04:50:54;20.52;;;3.97;;
67274;SDS011;55463;52.324;5.122;2023-03-25T04:53:24;26.38;;;4.53;;
67274;SDS011;55463;52.324;5.122;2023-03-25T04:55:51;27.45;;;3.92;;
67274;SDS011;55463;52.324;5.122;2023-03-25T04:58:17;32.50;;;4.82;;
67274;SDS011;55463;52.324;5.122;2023-03-25T05:00:43;25.02;;;5.32;;
67274;SDS011;55463;52.324;5.122;2023-03-25T05:03:10;27.30;;;4.75;;
67274;SDS011;55463;52.324;5.122;2023-03-25T05:05:36;34.50;;;4.28;;
67274;SDS011;55463;52.324;5.122;2023-03-25T05:08:02;29.30;;;4.68;;
67274;SDS011;55463;52.324;5.122;2023-03-25T05:10:28;35.03;;;4.25;;
67274;SDS011;55463;52.324;5.122;2023-03-25T05:13:00;28.13;;;4.28;;
67274;SDS011;55463;52.324;5.122;2023-03-25T05:15:27;30.35;;;4.82;;
67274;SDS011;55463;52.324;5.122;2023-03-25T05:17:54;31.02;;;4.75;;
67274;SDS011;55463;52.324;5.122;2023-03-25T05:20:20;35.33;;;5.07;;
67274;SDS011;55463;52.324;5.122;2023-03-25T05:22:46;26.45;;;4.75;;
67274;SDS011;55463;52.324;5.122;2023-03-25T05:25:11;38.33;;;5.20;;
67274;SDS011;55463;52.324;5.122;2023-03-25T05:27:37;31.17;;;5.38;;
67274;SDS011;55463;52.324;5.122;2023-03-25T05:30:05;27.00;;;5.28;;
67274;SDS011;55463;52.324;5.122;2023-03-25T05:32:31;31.83;;;5.63;;
67274;SDS011;55463;52.324;5.122;2023-03-25T05:35:00;25.20;;;4.70;;
67274;SDS011;55463;52.324;5.122;2023-03-25T05:37:27;27.10;;;3.83;;
67274;SDS011;55463;52.324;5.122;2023-03-25T05:39:53;25.88;;;4.38;;
67274;SDS011;55463;52.324;5.122;2023-03-25T05:42:18;32.10;;;4.40;;
67274;SDS011;55463;52.324;5.122;2023-03-25T05:44:47;25.90;;;4.57;;
67274;SDS011;55463;52.324;5.122;2023-03-25T05:47:23;29.63;;;4.10;;
67274;SDS011;55463;52.324;5.122;2023-03-25T05:49:50;26.38;;;4.65;;
67274;SDS011;55463;52.324;5.122;2023-03-25T05:52:16;31.40;;;4.55;;
67274;SDS011;55463;52.324;5.122;2023-03-25T05:54:43;29.40;;;4.30;;
67274;SDS011;55463;52.324;5.122;2023-03-25T05:57:10;26.15;;;4.47;;
67274;SDS011;55463;52.324;5.122;2023-03-25T05:59:36;31.73;;;4.75;;
67274;SDS011;55463;52.324;5.122;2023-03-25T06:02:11;22.13;;;3.78;;
67274;SDS011;55463;52.324;5.122;2023-03-25T06:04:37;27.95;;;4.30;;
67274;SDS011;55463;52.324;5.122;2023-03-25T06:07:11;33.72;;;4.70;;
67274;SDS011;55463;52.324;5.122;2023-03-25T06:09:43;28.02;;;3.88;;
67274;SDS011;55463;52.324;5.122;2023-03-25T06:12:09;27.50;;;3.72;;
67274;SDS011;55463;52.324;5.122;2023-03-25T06:14:39;30.27;;;4.45;;
67274;SDS011;55463;52.324;5.122;2023-03-25T06:17:07;38.92;;;4.90;;
67274;SDS011;55463;52.324;5.122;2023-03-25T06:19:34;34.92;;;4.75;;
67274;SDS011;55463;52.324;5.122;2023-03-25T06:22:03;34.13;;;4.45;;
67274;SDS011;55463;52.324;5.122;2023-03-25T06:24:30;30.45;;;4.70;;
67274;SDS011;55463;52.324;5.122;2023-03-25T06:26:56;27.40;;;5.15;;
67274;SDS011;55463;52.324;5.122;2023-03-25T06:29:21;31.17;;;4.25;;
67274;SDS011;55463;52.324;5.122;2023-03-25T06:31:46;26.33;;;4.20;;
67274;SDS011;55463;52.324;5.122;2023-03-25T06:34:12;35.60;;;4.63;;
67274;SDS011;55463;52.324;5.122;2023-03-25T06:36:37;29.20;;;4.05;;
67274;SDS011;55463;52.324;5.122;2023-03-25T06:39:03;30.63;;;4.13;;
67274;SDS011;55463;52.324;5.122;2023-03-25T06:41:29;24.17;;;3.20;;
67274;SDS011;55463;52.324;5.122;2023-03-25T06:43:55;20.90;;;3.33;;
67274;SDS011;55463;52.324;5.122;2023-03-25T06:46:20;23.05;;;3.90;;
67274;SDS011;55463;52.324;5.122;2023-03-25T06:48:46;22.77;;;4.30;;
67274;SDS011;55463;52.324;5.122;2023-03-25T06:51:11;29.92;;;4.22;;
67274;SDS011;55463;52.324;5.122;2023-03-25T06:53:36;31.20;;;4.13;;
67274;SDS011;55463;52.324;5.122;2023-03-25T06:56:02;24.13;;;4.20;;
67274;SDS011;55463;52.324;5.122;2023-03-25T06:58:27;29.80;;;3.92;;
67274;SDS011;55463;52.324;5.122;2023-03-25T07:00:59;25.65;;;4.03;;
67274;SDS011;55463;52.324;5.122;2023-03-25T07:03:28;32.00;;;5.05;;
67274;SDS011;55463;52.324;5.122;2023-03-25T07:05:53;30.25;;;4.35;;
67274;SDS011;55463;52.324;5.122;2023-03-25T07:08:19;30.00;;;4.25;;
67274;SDS011;55463;52.324;5.122;2023-03-25T07:10:44;32.83;;;4.88;;
67274;SDS011;55463;52.324;5.122;2023-03-25T07:13:12;31.75;;;4.85;;
67274;SDS011;55463;52.324;5.122;2023-03-25T07:15:37;29.00;;;4.20;;
67274;SDS011;55463;52.324;5.122;2023-03-25T07:18:03;36.90;;;5.13;;
67274;SDS011;55463;52.324;5.122;2023-03-25T07:20:28;35.33;;;4.32;;
67274;SDS011;55463;52.324;5.122;2023-03-25T07:22:54;24.38;;;3.90;;
67274;SDS011;55463;52.324;5.122;2023-03-25T07:25:20;28.38;;;4.13;;
67274;SDS011;55463;52.324;5.122;2023-03-25T07:27:46;18.75;;;3.53;;
67274;SDS011;55463;52.324;5.122;2023-03-25T07:30:11;25.55;;;3.67;;
67274;SDS011;55463;52.324;5.122;2023-03-25T07:32:37;30.30;;;4.88;;
67274;SDS011;55463;52.324;5.122;2023-03-25T07:35:03;26.15;;;4.10;;
67274;SDS011;55463;52.324;5.122;2023-03-25T07:37:28;29.75;;;4.20;;
67274;SDS011;55463;52.324;5.122;2023-03-25T07:39:54;29.10;;;4.45;;
67274;SDS011;55463;52.324;5.122;2023-03-25T07:42:19;21.58;;;3.80;;
67274;SDS011;55463;52.324;5.122;2023-03-25T07:44:45;26.58;;;4.65;;
67274;SDS011;55463;52.324;5.122;2023-03-25T07:47:10;17.40;;;3.13;;
67274;SDS011;55463;52.324;5.122;2023-03-25T07:49:36;22.13;;;3.47;;
67274;SDS011;55463;52.324;5.122;2023-03-25T07:52:04;21.83;;;3.65;;
67274;SDS011;55463;52.324;5.122;2023-03-25T07:54:30;20.25;;;3.70;;
67274;SDS011;55463;52.324;5.122;2023-03-25T07:56:56;20.92;;;3.28;;
67274;SDS011;55463;52.324;5.122;2023-03-25T07:59:21;15.32;;;3.40;;
67274;SDS011;55463;52.324;5.122;2023-03-25T08:01:47;21.92;;;3.35;;
67274;SDS011;55463;52.324;5.122;2023-03-25T08:04:12;15.52;;;3.00;;
67274;SDS011;55463;52.324;5.122;2023-03-25T08:06:38;27.23;;;3.40;;
67274;SDS011;55463;52.324;5.122;2023-03-25T08:09:04;21.08;;;4.10;;
67274;SDS011;55463;52.324;5.122;2023-03-25T08:11:30;20.65;;;3.58;;
67274;SDS011;55463;52.324;5.122;2023-03-25T08:13:56;17.45;;;3.35;;
67274;SDS011;55463;52.324;5.122;2023-03-25T08:16:21;21.98;;;4.13;;
67274;SDS011;55463;52.324;5.122;2023-03-25T08:18:47;22.65;;;3.53;;
67274;SDS011;55463;52.324;5.122;2023-03-25T08:21:12;21.00;;;3.13;;
67274;SDS011;55463;52.324;5.122;2023-03-25T08:23:38;24.45;;;3.60;;
67274;SDS011;55463;52.324;5.122;2023-03-25T08:26:03;22.35;;;3.17;;
67274;SDS011;55463;52.324;5.122;2023-03-25T08:28:32;18.15;;;3.20;;
67274;SDS011;55463;52.324;5.122;2023-03-25T08:30:57;23.73;;;3.53;;
67274;SDS011;55463;52.324;5.122;2023-03-25T08:33:29;24.83;;;3.63;;
67274;SDS011;55463;52.324;5.122;2023-03-25T08:36:03;20.75;;;3.40;;
67274;SDS011;55463;52.324;5.122;2023-03-25T08:38:29;24.23;;;3.75;;
67274;SDS011;55463;52.324;5.122;2023-03-25T08:40:56;25.98;;;4.05;;
67274;SDS011;55463;52.324;5.122;2023-03-25T08:43:25;22.67;;;3.22;;
67274;SDS011;55463;52.324;5.122;2023-03-25T08:45:51;23.13;;;3.28;;
67274;SDS011;55463;52.324;5.122;2023-03-25T08:48:16;21.50;;;3.92;;
67274;SDS011;55463;52.324;5.122;2023-03-25T08:50:42;24.77;;;3.50;;
67274;SDS011;55463;52.324;5.122;2023-03-25T08:53:07;20.00;;;3.40;;
67274;SDS011;55463;52.324;5.122;2023-03-25T08:55:33;22.08;;;3.67;;
67274;SDS011;55463;52.324;5.122;2023-03-25T08:58:02;20.80;;;3.53;;
67274;SDS011;55463;52.324;5.122;2023-03-25T09:00:28;21.15;;;3.40;;
67274;SDS011;55463;52.324;5.122;2023-03-25T09:03:03;21.38;;;3.60;;
67274;SDS011;55463;52.324;5.122;2023-03-25T09:05:30;20.77;;;3.40;;
67274;SDS011;55463;52.324;5.122;2023-03-25T09:07:55;19.90;;;3.72;;
67274;SDS011;55463;52.324;5.122;2023-03-25T09:10:21;18.63;;;3.25;;
67274;SDS011;55463;52.324;5.122;2023-03-25T09:12:46;22.10;;;3.72;;
67274;SDS011;55463;52.324;5.122;2023-03-25T09:15:11;18.40;;;3.38;;
67274;SDS011;55463;52.324;5.122;2023-03-25T09:17:37;20.70;;;3.30;;
67274;SDS011;55463;52.324;5.122;2023-03-25T09:20:03;19.00;;;3.17;;
67274;SDS011;55463;52.324;5.122;2023-03-25T09:22:33;22.10;;;3.25;;
67274;SDS011;55463;52.324;5.122;2023-03-25T09:25:01;24.77;;;3.47;;
67274;SDS011;55463;52.324;5.122;2023-03-25T09:27:27;18.00;;;3.55;;
67274;SDS011;55463;52.324;5.122;2023-03-25T09:29:53;20.95;;;4.10;;
67274;SDS011;55463;52.324;5.122;2023-03-25T09:32:18;18.40;;;2.88;;
67274;SDS011;55463;52.324;5.122;2023-03-25T09:34:43;22.30;;;3.88;;
67274;SDS011;55463;52.324;5.122;2023-03-25T09:37:09;17.80;;;3.72;;
67274;SDS011;55463;52.324;5.122;2023-03-25T09:39:35;18.40;;;3.33;;
67274;SDS011;55463;52.324;5.122;2023-03-25T09:47:44;22.33;;;3.33;;
67274;SDS011;55463;52.324;5.122;2023-03-25T09:50:18;18.05;;;3.33;;
67274;SDS011;55463;52.324;5.122;2023-03-25T09:53:04;13.82;;;4.07;;
67274;SDS011;55463;52.324;5.122;2023-03-25T09:55:42;22.92;;;3.80;;
67274;SDS011;55463;52.324;5.122;2023-03-25T09:58:27;24.58;;;3.63;;
67274;SDS011;55463;52.324;5.122;2023-03-25T10:01:03;27.13;;;3.97;;
67274;SDS011;55463;52.324;5.122;2023-03-25T10:03:46;26.02;;;3.67;;
67274;SDS011;55463;52.324;5.122;2023-03-25T10:06:22;33.05;;;5.00;;
67274;SDS011;55463;52.324;5.122;2023-03-25T10:25:05;22.70;;;4.00;;
67274;SDS011;55463;52.324;5.122;2023-03-25T10:27:41;24.20;;;4.28;;
67274;SDS011;55463;52.324;5.122;2023-03-25T10:33:03;21.60;;;3.63;;
67274;SDS011;55463;52.324;5.122;2023-03-25T10:35:35;16.52;;;3.35;;
67274;SDS011;55463;52.324;5.122;2023-03-25T10:40:47;21.07;;;3.70;;
67274;SDS011;55463;52.324;5.122;2023-03-25T10:45:47;14.75;;;3.55;;
67274;SDS011;55463;52.324;5.122;2023-03-25T10:48:23;17.35;;;3.45;;
67274;SDS011;55463;52.324;5.122;2023-03-25T10:50:52;23.92;;;3.35;;
67274;SDS011;55463;52.324;5.122;2023-03-25T10:53:28;25.90;;;3.55;;
67274;SDS011;55463;52.324;5.122;2023-03-25T10:55:55;25.42;;;3.97;;
67274;SDS011;55463;52.324;5.122;2023-03-25T10:58:37;19.98;;;3.75;;
67274;SDS011;55463;52.324;5.122;2023-03-25T11:01:09;14.15;;;3.13;;
67274;SDS011;55463;52.324;5.122;2023-03-25T11:03:43;18.85;;;3.60;;
67274;SDS011;55463;52.324;5.122;2023-03-25T11:06:32;17.45;;;2.97;;
67274;SDS011;55463;52.324;5.122;2023-03-25T11:11:32;26.65;;;3.90;;
67274;SDS011;55463;52.324;5.122;2023-03-25T11:13:58;19.85;;;3.08;;
67274;SDS011;55463;52.324;5.122;2023-03-25T11:16:24;21.85;;;3.92;;
67274;SDS011;55463;52.324;5.122;2023-03-25T11:18:50;26.70;;;4.03;;
67274;SDS011;55463;52.324;5.122;2023-03-25T11:21:17;20.60;;;3.92;;
67274;SDS011;55463;52.324;5.122;2023-03-25T11:23:44;23.08;;;4.25;;
67274;SDS011;55463;52.324;5.122;2023-03-25T11:26:20;21.08;;;3.15;;
67274;SDS011;55463;52.324;5.122;2023-03-25T11:28:49;18.15;;;3.67;;
67274;SDS011;55463;52.324;5.122;2023-03-25T11:31:32;16.58;;;2.97;;
67274;SDS011;55463;52.324;5.122;2023-03-25T11:34:16;21.03;;;3.10;;
67274;SDS011;55463;52.324;5.122;2023-03-25T11:41:47;16.90;;;2.78;;
67274;SDS011;55463;52.324;5.122;2023-03-25T11:44:32;18.17;;;3.50;;
67274;SDS011;55463;52.324;5.122;2023-03-25T11:47:01;18.88;;;3.08;;
67274;SDS011;55463;52.324;5.122;2023-03-25T11:52:02;17.38;;;3.28;;
67274;SDS011;55463;52.324;5.122;2023-03-25T11:54:31;20.92;;;3.30;;
67274;SDS011;55463;52.324;5.122;2023-03-25T11:56:58;16.88;;;3.28;;
67274;SDS011;55463;52.324;5.122;2023-03-25T11:59:24;12.77;;;2.85;;
67274;SDS011;55463;52.324;5.122;2023-03-25T12:02:01;16.20;;;3.08;;
67274;SDS011;55463;52.324;5.122;2023-03-25T12:04:52;21.00;;;3.20;;
67274;SDS011;55463;52.324;5.122;2023-03-25T12:07:20;16.77;;;3.10;;
67274;SDS011;55463;52.324;5.122;2023-03-25T12:09:56;18.77;;;3.40;;
67274;SDS011;55463;52.324;5.122;2023-03-25T12:12:29;21.05;;;2.78;;
67274;SDS011;55463;52.324;5.122;2023-03-25T12:26:24;22.65;;;4.22;;
67274;SDS011;55463;52.324;5.122;2023-03-25T12:32:01;19.13;;;3.45;;
67274;SDS011;55463;52.324;5.122;2023-03-25T12:34:51;15.18;;;3.50;;
67274;SDS011;55463;52.324;5.122;2023-03-25T12:40:26;12.85;;;2.88;;
67274;SDS011;55463;52.324;5.122;2023-03-25T12:45:46;18.23;;;3.28;;
67274;SDS011;55463;52.324;5.122;2023-03-25T12:59:46;15.00;;;3.17;;
67274;SDS011;55463;52.324;5.122;2023-03-25T13:02:29;13.82;;;2.75;;
67274;SDS011;55463;52.324;5.122;2023-03-25T13:05:15;17.48;;;3.13;;
67274;SDS011;55463;52.324;5.122;2023-03-25T13:11:01;15.93;;;3.33;;
67274;SDS011;55463;52.324;5.122;2023-03-25T13:13:30;17.23;;;3.72;;
67274;SDS011;55463;52.324;5.122;2023-03-25T13:16:06;17.10;;;3.17;;
67274;SDS011;55463;52.324;5.122;2023-03-25T13:18:44;13.45;;;2.75;;
67274;SDS011;55463;52.324;5.122;2023-03-25T13:21:27;15.68;;;3.00;;
67274;SDS011;55463;52.324;5.122;2023-03-25T13:23:57;15.57;;;2.80;;
67274;SDS011;55463;52.324;5.122;2023-03-25T13:26:27;11.05;;;2.58;;
67274;SDS011;55463;52.324;5.122;2023-03-25T13:31:41;11.70;;;2.55;;
67274;SDS011;55463;52.324;5.122;2023-03-25T13:34:26;11.00;;;2.58;;
67274;SDS011;55463;52.324;5.122;2023-03-25T13:39:25;12.63;;;2.15;;
67274;SDS011;55463;52.324;5.122;2023-03-25T13:42:09;11.55;;;2.00;;
67274;SDS011;55463;52.324;5.122;2023-03-25T13:44:39;10.80;;;2.45;;
67274;SDS011;55463;52.324;5.122;2023-03-25T13:49:52;14.88;;;2.60;;
67274;SDS011;55463;52.324;5.122;2023-03-25T13:52:25;14.70;;;2.63;;
67274;SDS011;55463;52.324;5.122;2023-03-25T13:54:57;13.38;;;2.33;;
67274;SDS011;55463;52.324;5.122;2023-03-25T14:03:10;13.85;;;2.40;;
67274;SDS011;55463;52.324;5.122;2023-03-25T14:11:39;13.48;;;2.60;;
67274;SDS011;55463;52.324;5.122;2023-03-25T14:14:08;6.55;;;2.28;;
67274;SDS011;55463;52.324;5.122;2023-03-25T14:17:09;9.48;;;2.20;;
67274;SDS011;55463;52.324;5.122;2023-03-25T14:19:33;14.18;;;2.83;;
67274;SDS011;55463;52.324;5.122;2023-03-25T14:22:12;13.52;;;2.65;;
67274;SDS011;55463;52.324;5.122;2023-03-25T14:24:42;10.98;;;2.50;;
67274;SDS011;55463;52.324;5.122;2023-03-25T14:27:17;15.82;;;2.53;;
67274;SDS011;55463;52.324;5.122;2023-03-25T14:29:55;13.15;;;2.70;;
67274;SDS011;55463;52.324;5.122;2023-03-25T14:37:56;19.38;;;3.30;;
67274;SDS011;55463;52.324;5.122;2023-03-25T14:48:29;10.68;;;2.60;;
67274;SDS011;55463;52.324;5.122;2023-03-25T14:53:58;19.20;;;2.83;;
67274;SDS011;55463;52.324;5.122;2023-03-25T14:56:34;8.88;;;1.80;;
67274;SDS011;55463;52.324;5.122;2023-03-25T14:59:35;14.32;;;2.50;;
67274;SDS011;55463;52.324;5.122;2023-03-25T15:01:59;14.32;;;2.63;;
67274;SDS011;55463;52.324;5.122;2023-03-25T15:04:29;12.00;;;2.47;;
67274;SDS011;55463;52.324;5.122;2023-03-25T15:06:58;10.38;;;1.83;;
67274;SDS011;55463;52.324;5.122;2023-03-25T15:09:26;11.88;;;1.70;;
67274;SDS011;55463;52.324;5.122;2023-03-25T15:11:57;6.50;;;1.55;;
67274;SDS011;55463;52.324;5.122;2023-03-25T15:14:30;4.75;;;1.65;;
67274;SDS011;55463;52.324;5.122;2023-03-25T15:17:01;5.97;;;1.52;;
67274;SDS011;55463;52.324;5.122;2023-03-25T15:19:29;3.22;;;1.13;;
67274;SDS011;55463;52.324;5.122;2023-03-25T15:22:26;3.17;;;1.38;;
67274;SDS011;55463;52.324;5.122;2023-03-25T15:24:56;6.60;;;2.05;;
67274;SDS011;55463;52.324;5.122;2023-03-25T15:27:37;6.82;;;1.70;;
67274;SDS011;55463;52.324;5.122;2023-03-25T15:36:26;3.92;;;1.83;;
67274;SDS011;55463;52.324;5.122;2023-03-25T15:56:48;4.28;;;1.40;;
67274;SDS011;55463;52.324;5.122;2023-03-25T16:01:46;6.13;;;1.63;;
67274;SDS011;55463;52.324;5.122;2023-03-25T16:04:16;3.42;;;1.70;;
67274;SDS011;55463;52.324;5.122;2023-03-25T16:06:56;8.23;;;1.65;;
67274;SDS011;55463;52.324;5.122;2023-03-25T16:09:24;7.78;;;1.88;;
67274;SDS011;55463;52.324;5.122;2023-03-25T16:11:51;5.57;;;1.48;;
67274;SDS011;55463;52.324;5.122;2023-03-25T16:14:21;5.65;;;2.15;;
67274;SDS011;55463;52.324;5.122;2023-03-25T16:16:48;5.25;;;1.50;;
67274;SDS011;55463;52.324;5.122;2023-03-25T16:19:41;3.45;;;1.30;;
67274;SDS011;55463;52.324;5.122;2023-03-25T16:22:29;2.47;;;1.45;;
67274;SDS011;55463;52.324;5.122;2023-03-25T16:24:57;6.03;;;1.75;;
67274;SDS011;55463;52.324;5.122;2023-03-25T16:27:36;2.47;;;1.30;;
67274;SDS011;55463;52.324;5.122;2023-03-25T16:35:31;3.45;;;1.25;;
67274;SDS011;55463;52.324;5.122;2023-03-25T16:37:58;5.78;;;1.17;;
67274;SDS011;55463;52.324;5.122;2023-03-25T16:40:27;4.70;;;1.38;;
67274;SDS011;55463;52.324;5.122;2023-03-25T16:42:54;9.95;;;1.50;;
67274;SDS011;55463;52.324;5.122;2023-03-25T16:45:26;6.35;;;1.60;;
67274;SDS011;55463;52.324;5.122;2023-03-25T16:47:52;5.20;;;1.50;;
67274;SDS011;55463;52.324;5.122;2023-03-25T16:50:18;4.65;;;1.40;;
67274;SDS011;55463;52.324;5.122;2023-03-25T16:52:47;10.82;;;1.73;;
67274;SDS011;55463;52.324;5.122;2023-03-25T16:55:57;9.68;;;1.70;;
67274;SDS011;55463;52.324;5.122;2023-03-25T16:58:18;4.95;;;1.60;;
67274;SDS011;55463;52.324;5.122;2023-03-25T17:00:47;7.40;;;1.70;;
67274;SDS011;55463;52.324;5.122;2023-03-25T17:03:16;7.00;;;1.77;;
67274;SDS011;55463;52.324;5.122;2023-03-25T17:06:03;10.10;;;2.53;;
67274;SDS011;55463;52.324;5.122;2023-03-25T17:08:51;9.13;;;2.17;;
67274;SDS011;55463;52.324;5.122;2023-03-25T17:11:19;11.75;;;2.35;;
67274;SDS011;55463;52.324;5.122;2023-03-25T17:13:47;8.63;;;2.40;;
67274;SDS011;55463;52.324;5.122;2023-03-25T17:16:19;7.60;;;1.90;;
67274;SDS011;55463;52.324;5.122;2023-03-25T17:18:50;10.77;;;2.65;;
67274;SDS011;55463;52.324;5.122;2023-03-25T17:21:22;6.70;;;2.10;;
67274;SDS011;55463;52.324;5.122;2023-03-25T17:23:51;11.00;;;2.15;;
67274;SDS011;55463;52.324;5.122;2023-03-25T17:26:19;10.25;;;2.55;;
67274;SDS011;55463;52.324;5.122;2023-03-25T17:36:42;10.13;;;2.55;;
67274;SDS011;55463;52.324;5.122;2023-03-25T17:39:21;11.85;;;3.47;;
67274;SDS011;55463;52.324;5.122;2023-03-25T17:42:13;14.18;;;2.78;;
67274;SDS011;55463;52.324;5.122;2023-03-25T17:44:43;12.18;;;4.25;;
67274;SDS011;55463;52.324;5.122;2023-03-25T17:47:13;14.48;;;2.60;;
67274;SDS011;55463;52.324;5.122;2023-03-25T17:49:40;14.55;;;3.03;;
67274;SDS011;55463;52.324;5.122;2023-03-25T17:52:06;12.57;;;3.55;;